sensor_id;sensor_type;location;lat;lon;timestamp;P1;durP1;ratioP1;P2;durP2;ratioP2
15889;SDS011;8043;49.388;12.128;2023-07-16T00:07:44;5.10;;;2.05;;
15889;SDS011;8043;49.388;12.128;2023-07-16T00:12:47;5.00;;;2.45;;
15889;SDS011;8043;49.388;12.128;2023-07-16T00:17:49;4.42;;;2.08;;
15889;SDS011;8043;49.388;12.128;2023-07-16T00:27:52;2.97;;;1.67;;
15889;SDS011;8043;49.388;12.128;2023-07-16T00:32:55;2.00;;;1.87;;
15889;SDS011;8043;49.388;12.128;2023-07-16T00:37:57;1.90;;;1.70;;
15889;SDS011;8043;49.388;12.128;2023-07-16T00:48:00;4.70;;;2.60;;
15889;SDS011;8043;49.388;12.128;2023-07-16T00:53:03;5.45;;;2.35;;
15889;SDS011;8043;49.388;12.128;2023-07-16T00:58:06;3.10;;;2.08;;
15889;SDS011;8043;49.388;12.128;2023-07-16T01:03:09;4.87;;;2.40;;
15889;SDS011;8043;49.388;12.128;2023-07-16T01:08:14;6.00;;;2.50;;
15889;SDS011;8043;49.388;12.128;2023-07-16T01:13:19;5.17;;;2.65;;
15889;SDS011;8043;49.388;12.128;2023-07-16T01:18:21;3.95;;;2.45;;
15889;SDS011;8043;49.388;12.128;2023-07-16T01:23:31;2.95;;;2.20;;
15889;SDS011;8043;49.388;12.128;2023-07-16T01:28:55;4.47;;;2.50;;
15889;SDS011;8043;49.388;12.128;2023-07-16T01:34:16;5.90;;;2.53;;
15889;SDS011;8043;49.388;12.128;2023-07-16T01:39:19;4.93;;;2.33;;
15889;SDS011;8043;49.388;12.128;2023-07-16T01:44:21;7.58;;;2.95;;
15889;SDS011;8043;49.388;12.128;2023-07-16T01:49:23;8.83;;;2.10;;
15889;SDS011;8043;49.388;12.128;2023-07-16T01:54:26;5.75;;;3.17;;
15889;SDS011;8043;49.388;12.128;2023-07-16T01:59:28;10.00;;;2.83;;
15889;SDS011;8043;49.388;12.128;2023-07-16T02:04:30;10.35;;;2.77;;
15889;SDS011;8043;49.388;12.128;2023-07-16T02:09:33;6.83;;;3.08;;
15889;SDS011;8043;49.388;12.128;2023-07-16T02:14:35;9.03;;;3.35;;
15889;SDS011;8043;49.388;12.128;2023-07-16T02:19:38;5.12;;;3.20;;
15889;SDS011;8043;49.388;12.128;2023-07-16T02:24:40;5.87;;;2.45;;
15889;SDS011;8043;49.388;12.128;2023-07-16T02:29:42;8.63;;;2.70;;
15889;SDS011;8043;49.388;12.128;2023-07-16T02:39:46;5.85;;;2.72;;
15889;SDS011;8043;49.388;12.128;2023-07-16T02:44:48;2.65;;;2.40;;
15889;SDS011;8043;49.388;12.128;2023-07-16T02:54:52;8.15;;;3.12;;
15889;SDS011;8043;49.388;12.128;2023-07-16T02:59:55;5.17;;;2.83;;
15889;SDS011;8043;49.388;12.128;2023-07-16T03:04:57;5.62;;;3.05;;
15889;SDS011;8043;49.388;12.128;2023-07-16T03:09:59;4.70;;;2.60;;
15889;SDS011;8043;49.388;12.128;2023-07-16T03:15:02;4.10;;;2.90;;
15889;SDS011;8043;49.388;12.128;2023-07-16T03:20:05;5.28;;;2.95;;
15889;SDS011;8043;49.388;12.128;2023-07-16T03:25:08;4.60;;;2.58;;
15889;SDS011;8043;49.388;12.128;2023-07-16T03:30:10;5.28;;;2.80;;
15889;SDS011;8043;49.388;12.128;2023-07-16T03:35:12;5.20;;;2.33;;
15889;SDS011;8043;49.388;12.128;2023-07-16T03:40:15;4.72;;;2.08;;
15889;SDS011;8043;49.388;12.128;2023-07-16T03:45:18;6.20;;;2.87;;
15889;SDS011;8043;49.388;12.128;2023-07-16T03:50:21;4.20;;;2.40;;
15889;SDS011;8043;49.388;12.128;2023-07-16T03:55:23;5.80;;;2.27;;
15889;SDS011;8043;49.388;12.128;2023-07-16T04:00:25;3.62;;;2.60;;
15889;SDS011;8043;49.388;12.128;2023-07-16T04:05:28;3.90;;;2.95;;
15889;SDS011;8043;49.388;12.128;2023-07-16T04:10:30;6.03;;;2.83;;
15889;SDS011;8043;49.388;12.128;2023-07-16T04:15:32;3.72;;;2.62;;
15889;SDS011;8043;49.388;12.128;2023-07-16T04:25:36;6.97;;;2.83;;
15889;SDS011;8043;49.388;12.128;2023-07-16T04:30:38;6.47;;;3.17;;
15889;SDS011;8043;49.388;12.128;2023-07-16T04:35:41;3.55;;;2.62;;
15889;SDS011;8043;49.388;12.128;2023-07-16T04:40:43;5.70;;;2.27;;
15889;SDS011;8043;49.388;12.128;2023-07-16T04:45:45;6.80;;;2.92;;
15889;SDS011;8043;49.388;12.128;2023-07-16T04:50:47;6.22;;;2.50;;
15889;SDS011;8043;49.388;12.128;2023-07-16T04:55:50;2.62;;;2.20;;
15889;SDS011;8043;49.388;12.128;2023-07-16T05:00:52;3.08;;;2.10;;
15889;SDS011;8043;49.388;12.128;2023-07-16T05:10:56;3.77;;;2.37;;
15889;SDS011;8043;49.388;12.128;2023-07-16T05:15:59;5.17;;;2.00;;
15889;SDS011;8043;49.388;12.128;2023-07-16T05:26:03;2.37;;;1.45;;
15889;SDS011;8043;49.388;12.128;2023-07-16T05:31:05;2.50;;;1.92;;
15889;SDS011;8043;49.388;12.128;2023-07-16T05:36:07;3.00;;;1.35;;
15889;SDS011;8043;49.388;12.128;2023-07-16T05:41:09;2.17;;;1.27;;
15889;SDS011;8043;49.388;12.128;2023-07-16T05:46:12;1.00;;;1.00;;
15889;SDS011;8043;49.388;12.128;2023-07-16T05:51:14;1.72;;;0.90;;
15889;SDS011;8043;49.388;12.128;2023-07-16T05:56:16;1.45;;;1.20;;
15889;SDS011;8043;49.388;12.128;2023-07-16T06:01:19;4.60;;;1.20;;
15889;SDS011;8043;49.388;12.128;2023-07-16T06:06:21;2.08;;;1.00;;
15889;SDS011;8043;49.388;12.128;2023-07-16T06:11:23;1.57;;;1.10;;
15889;SDS011;8043;49.388;12.128;2023-07-16T06:16:25;1.47;;;1.02;;
15889;SDS011;8043;49.388;12.128;2023-07-16T06:21:27;1.15;;;1.05;;
15889;SDS011;8043;49.388;12.128;2023-07-16T06:26:30;1.60;;;1.20;;
15889;SDS011;8043;49.388;12.128;2023-07-16T06:31:32;1.20;;;1.00;;
15889;SDS011;8043;49.388;12.128;2023-07-16T06:36:34;2.55;;;1.10;;
15889;SDS011;8043;49.388;12.128;2023-07-16T06:41:37;1.87;;;1.02;;
15889;SDS011;8043;49.388;12.128;2023-07-16T06:46:39;2.90;;;1.23;;
15889;SDS011;8043;49.388;12.128;2023-07-16T06:51:41;3.08;;;1.87;;
15889;SDS011;8043;49.388;12.128;2023-07-16T06:56:43;6.80;;;1.17;;
15889;SDS011;8043;49.388;12.128;2023-07-16T07:01:45;5.40;;;1.17;;
15889;SDS011;8043;49.388;12.128;2023-07-16T07:06:47;3.50;;;1.00;;
15889;SDS011;8043;49.388;12.128;2023-07-16T07:11:50;4.03;;;1.00;;
15889;SDS011;8043;49.388;12.128;2023-07-16T07:16:52;5.93;;;1.60;;
15889;SDS011;8043;49.388;12.128;2023-07-16T07:26:55;5.15;;;1.02;;
15889;SDS011;8043;49.388;12.128;2023-07-16T07:31:58;2.27;;;1.32;;
15889;SDS011;8043;49.388;12.128;2023-07-16T07:37:00;8.73;;;1.37;;
15889;SDS011;8043;49.388;12.128;2023-07-16T07:42:02;5.80;;;1.40;;
15889;SDS011;8043;49.388;12.128;2023-07-16T07:47:05;5.85;;;1.42;;
15889;SDS011;8043;49.388;12.128;2023-07-16T07:52:09;3.17;;;1.30;;
15889;SDS011;8043;49.388;12.128;2023-07-16T07:57:11;2.87;;;1.30;;
15889;SDS011;8043;49.388;12.128;2023-07-16T08:07:15;5.20;;;1.37;;
15889;SDS011;8043;49.388;12.128;2023-07-16T08:12:18;10.43;;;1.40;;
15889;SDS011;8043;49.388;12.128;2023-07-16T08:17:20;1.83;;;1.13;;
15889;SDS011;8043;49.388;12.128;2023-07-16T08:22:22;4.87;;;1.30;;
15889;SDS011;8043;49.388;12.128;2023-07-16T08:27:25;3.12;;;1.32;;
15889;SDS011;8043;49.388;12.128;2023-07-16T08:32:27;9.00;;;2.20;;
15889;SDS011;8043;49.388;12.128;2023-07-16T08:42:31;4.50;;;1.60;;
15889;SDS011;8043;49.388;12.128;2023-07-16T08:47:40;4.92;;;1.37;;
15889;SDS011;8043;49.388;12.128;2023-07-16T08:52:42;3.27;;;1.25;;
15889;SDS011;8043;49.388;12.128;2023-07-16T08:57:45;3.20;;;1.62;;
15889;SDS011;8043;49.388;12.128;2023-07-16T09:02:48;4.28;;;1.47;;
15889;SDS011;8043;49.388;12.128;2023-07-16T09:07:50;3.42;;;1.00;;
15889;SDS011;8043;49.388;12.128;2023-07-16T09:17:54;3.80;;;1.22;;
15889;SDS011;8043;49.388;12.128;2023-07-16T09:22:56;2.15;;;1.10;;
15889;SDS011;8043;49.388;12.128;2023-07-16T09:28:01;4.12;;;1.77;;
15889;SDS011;8043;49.388;12.128;2023-07-16T09:33:13;2.55;;;1.27;;
15889;SDS011;8043;49.388;12.128;2023-07-16T09:38:17;10.85;;;1.25;;
15889;SDS011;8043;49.388;12.128;2023-07-16T09:43:19;5.35;;;1.42;;
15889;SDS011;8043;49.388;12.128;2023-07-16T09:48:22;1.82;;;1.40;;
15889;SDS011;8043;49.388;12.128;2023-07-16T09:58:26;5.12;;;1.40;;
15889;SDS011;8043;49.388;12.128;2023-07-16T10:03:28;2.27;;;1.60;;
15889;SDS011;8043;49.388;12.128;2023-07-16T10:08:33;3.17;;;1.50;;
15889;SDS011;8043;49.388;12.128;2023-07-16T10:13:37;4.50;;;1.30;;
15889;SDS011;8043;49.388;12.128;2023-07-16T10:18:49;3.95;;;1.47;;
15889;SDS011;8043;49.388;12.128;2023-07-16T10:23:45;6.08;;;1.70;;
15889;SDS011;8043;49.388;12.128;2023-07-16T10:28:47;4.33;;;1.30;;
15889;SDS011;8043;49.388;12.128;2023-07-16T10:43:54;6.70;;;1.30;;
15889;SDS011;8043;49.388;12.128;2023-07-16T10:48:56;7.37;;;1.72;;
15889;SDS011;8043;49.388;12.128;2023-07-16T10:53:58;1.98;;;1.30;;
15889;SDS011;8043;49.388;12.128;2023-07-16T10:59:01;5.60;;;1.43;;
15889;SDS011;8043;49.388;12.128;2023-07-16T11:04:07;4.87;;;1.60;;
15889;SDS011;8043;49.388;12.128;2023-07-16T11:09:09;2.70;;;1.87;;
15889;SDS011;8043;49.388;12.128;2023-07-16T11:14:12;5.78;;;1.37;;
15889;SDS011;8043;49.388;12.128;2023-07-16T11:19:14;4.57;;;1.80;;
15889;SDS011;8043;49.388;12.128;2023-07-16T11:24:16;1.83;;;1.17;;
15889;SDS011;8043;49.388;12.128;2023-07-16T11:29:20;5.55;;;1.60;;
15889;SDS011;8043;49.388;12.128;2023-07-16T11:34:23;3.10;;;1.52;;
15889;SDS011;8043;49.388;12.128;2023-07-16T11:39:27;3.03;;;1.63;;
15889;SDS011;8043;49.388;12.128;2023-07-16T11:44:33;11.43;;;1.52;;
15889;SDS011;8043;49.388;12.128;2023-07-16T11:49:36;3.77;;;1.35;;
15889;SDS011;8043;49.388;12.128;2023-07-16T11:54:38;4.92;;;1.35;;
15889;SDS011;8043;49.388;12.128;2023-07-16T11:59:40;4.58;;;1.85;;
15889;SDS011;8043;49.388;12.128;2023-07-16T12:04:42;5.23;;;2.10;;
15889;SDS011;8043;49.388;12.128;2023-07-16T12:09:44;5.97;;;1.57;;
15889;SDS011;8043;49.388;12.128;2023-07-16T12:14:46;4.22;;;1.57;;
15889;SDS011;8043;49.388;12.128;2023-07-16T12:24:50;2.93;;;1.83;;
15889;SDS011;8043;49.388;12.128;2023-07-16T12:29:52;1.67;;;1.52;;
15889;SDS011;8043;49.388;12.128;2023-07-16T12:34:54;2.17;;;1.65;;
15889;SDS011;8043;49.388;12.128;2023-07-16T12:39:58;6.20;;;1.40;;
15889;SDS011;8043;49.388;12.128;2023-07-16T12:45:01;9.33;;;1.65;;
15889;SDS011;8043;49.388;12.128;2023-07-16T12:50:03;2.05;;;1.80;;
15889;SDS011;8043;49.388;12.128;2023-07-16T12:55:06;2.55;;;1.70;;
15889;SDS011;8043;49.388;12.128;2023-07-16T13:00:08;6.28;;;1.37;;
15889;SDS011;8043;49.388;12.128;2023-07-16T13:05:11;7.37;;;1.67;;
15889;SDS011;8043;49.388;12.128;2023-07-16T13:10:13;6.25;;;1.75;;
15889;SDS011;8043;49.388;12.128;2023-07-16T13:15:15;3.47;;;1.50;;
15889;SDS011;8043;49.388;12.128;2023-07-16T13:20:18;3.02;;;1.40;;
15889;SDS011;8043;49.388;12.128;2023-07-16T13:25:20;3.17;;;1.30;;
15889;SDS011;8043;49.388;12.128;2023-07-16T13:30:23;2.65;;;1.70;;
15889;SDS011;8043;49.388;12.128;2023-07-16T13:35:26;5.08;;;1.52;;
15889;SDS011;8043;49.388;12.128;2023-07-16T13:40:28;1.82;;;1.12;;
15889;SDS011;8043;49.388;12.128;2023-07-16T13:45:30;4.62;;;1.90;;
15889;SDS011;8043;49.388;12.128;2023-07-16T13:50:35;2.72;;;1.52;;
15889;SDS011;8043;49.388;12.128;2023-07-16T14:00:38;9.87;;;1.70;;
15889;SDS011;8043;49.388;12.128;2023-07-16T14:05:40;2.58;;;1.40;;
15889;SDS011;8043;49.388;12.128;2023-07-16T14:10:43;1.98;;;1.20;;
15889;SDS011;8043;49.388;12.128;2023-07-16T14:15:46;2.17;;;1.60;;
15889;SDS011;8043;49.388;12.128;2023-07-16T14:25:49;3.10;;;1.20;;
15889;SDS011;8043;49.388;12.128;2023-07-16T14:30:52;1.12;;;1.02;;
15889;SDS011;8043;49.388;12.128;2023-07-16T14:40:55;1.20;;;1.10;;
15889;SDS011;8043;49.388;12.128;2023-07-16T14:45:57;3.05;;;1.60;;
15889;SDS011;8043;49.388;12.128;2023-07-16T14:50:59;2.55;;;1.80;;
15889;SDS011;8043;49.388;12.128;2023-07-16T14:56:09;5.08;;;1.67;;
15889;SDS011;8043;49.388;12.128;2023-07-16T15:01:07;4.10;;;0.95;;
15889;SDS011;8043;49.388;12.128;2023-07-16T15:06:09;1.43;;;1.33;;
15889;SDS011;8043;49.388;12.128;2023-07-16T15:11:11;4.60;;;1.43;;
15889;SDS011;8043;49.388;12.128;2023-07-16T15:16:14;5.03;;;1.30;;
15889;SDS011;8043;49.388;12.128;2023-07-16T15:21:16;5.67;;;1.40;;
15889;SDS011;8043;49.388;12.128;2023-07-16T15:31:19;3.47;;;1.52;;
15889;SDS011;8043;49.388;12.128;2023-07-16T15:36:24;4.22;;;1.20;;
15889;SDS011;8043;49.388;12.128;2023-07-16T15:41:27;1.70;;;1.37;;
15889;SDS011;8043;49.388;12.128;2023-07-16T15:46:29;3.95;;;1.85;;
15889;SDS011;8043;49.388;12.128;2023-07-16T15:51:32;1.80;;;1.17;;
15889;SDS011;8043;49.388;12.128;2023-07-16T15:56:36;1.90;;;1.37;;
15889;SDS011;8043;49.388;12.128;2023-07-16T16:06:41;2.85;;;1.70;;
15889;SDS011;8043;49.388;12.128;2023-07-16T16:11:43;3.47;;;1.35;;
15889;SDS011;8043;49.388;12.128;2023-07-16T16:16:46;1.70;;;1.42;;
15889;SDS011;8043;49.388;12.128;2023-07-16T16:21:52;2.62;;;1.57;;
15889;SDS011;8043;49.388;12.128;2023-07-16T16:26:58;2.50;;;1.30;;
15889;SDS011;8043;49.388;12.128;2023-07-16T16:32:06;2.08;;;1.20;;
15889;SDS011;8043;49.388;12.128;2023-07-16T16:37:04;2.87;;;1.50;;
15889;SDS011;8043;49.388;12.128;2023-07-16T16:42:07;2.65;;;1.50;;
15889;SDS011;8043;49.388;12.128;2023-07-16T16:47:09;2.62;;;1.60;;
15889;SDS011;8043;49.388;12.128;2023-07-16T16:52:11;3.10;;;1.62;;
15889;SDS011;8043;49.388;12.128;2023-07-16T16:57:13;2.12;;;1.62;;
15889;SDS011;8043;49.388;12.128;2023-07-16T17:02:15;4.03;;;1.70;;
15889;SDS011;8043;49.388;12.128;2023-07-16T17:07:17;4.90;;;1.40;;
15889;SDS011;8043;49.388;12.128;2023-07-16T17:12:20;2.33;;;1.30;;
15889;SDS011;8043;49.388;12.128;2023-07-16T17:17:23;2.12;;;1.35;;
15889;SDS011;8043;49.388;12.128;2023-07-16T17:22:25;1.77;;;1.40;;
15889;SDS011;8043;49.388;12.128;2023-07-16T17:27:27;2.35;;;1.42;;
15889;SDS011;8043;49.388;12.128;2023-07-16T17:32:30;3.58;;;1.67;;
15889;SDS011;8043;49.388;12.128;2023-07-16T17:37:32;2.67;;;1.55;;
15889;SDS011;8043;49.388;12.128;2023-07-16T17:42:34;2.55;;;1.47;;
15889;SDS011;8043;49.388;12.128;2023-07-16T17:47:36;3.20;;;1.70;;
15889;SDS011;8043;49.388;12.128;2023-07-16T17:52:39;3.80;;;1.60;;
15889;SDS011;8043;49.388;12.128;2023-07-16T17:57:41;2.20;;;1.62;;
15889;SDS011;8043;49.388;12.128;2023-07-16T18:02:43;3.40;;;1.47;;
15889;SDS011;8043;49.388;12.128;2023-07-16T18:07:45;2.70;;;1.47;;
15889;SDS011;8043;49.388;12.128;2023-07-16T18:12:48;1.47;;;1.37;;
15889;SDS011;8043;49.388;12.128;2023-07-16T18:17:50;3.52;;;1.98;;
15889;SDS011;8043;49.388;12.128;2023-07-16T18:22:52;9.03;;;1.60;;
15889;SDS011;8043;49.388;12.128;2023-07-16T18:27:54;6.17;;;1.40;;
15889;SDS011;8043;49.388;12.128;2023-07-16T18:32:58;2.37;;;1.55;;
15889;SDS011;8043;49.388;12.128;2023-07-16T18:38:00;3.98;;;2.08;;
15889;SDS011;8043;49.388;12.128;2023-07-16T18:43:04;2.05;;;1.62;;
15889;SDS011;8043;49.388;12.128;2023-07-16T18:48:06;3.62;;;1.75;;
15889;SDS011;8043;49.388;12.128;2023-07-16T18:58:10;3.07;;;1.73;;
15889;SDS011;8043;49.388;12.128;2023-07-16T19:03:12;2.95;;;1.70;;
15889;SDS011;8043;49.388;12.128;2023-07-16T19:08:14;3.95;;;1.98;;
15889;SDS011;8043;49.388;12.128;2023-07-16T19:13:17;2.33;;;1.77;;
15889;SDS011;8043;49.388;12.128;2023-07-16T19:18:20;1.80;;;1.70;;
15889;SDS011;8043;49.388;12.128;2023-07-16T19:28:25;9.00;;;2.30;;
15889;SDS011;8043;49.388;12.128;2023-07-16T19:33:27;4.65;;;3.20;;
15889;SDS011;8043;49.388;12.128;2023-07-16T19:38:30;4.80;;;1.80;;
15889;SDS011;8043;49.388;12.128;2023-07-16T19:43:32;3.33;;;1.87;;
15889;SDS011;8043;49.388;12.128;2023-07-16T19:48:35;7.47;;;2.10;;
15889;SDS011;8043;49.388;12.128;2023-07-16T19:53:38;2.37;;;1.77;;
15889;SDS011;8043;49.388;12.128;2023-07-16T19:58:40;2.55;;;1.42;;
15889;SDS011;8043;49.388;12.128;2023-07-16T20:03:42;6.03;;;1.80;;
15889;SDS011;8043;49.388;12.128;2023-07-16T20:08:44;6.85;;;1.65;;
15889;SDS011;8043;49.388;12.128;2023-07-16T20:13:47;5.10;;;1.90;;
15889;SDS011;8043;49.388;12.128;2023-07-16T20:18:49;4.00;;;1.77;;
15889;SDS011;8043;49.388;12.128;2023-07-16T20:23:52;2.12;;;1.75;;
15889;SDS011;8043;49.388;12.128;2023-07-16T20:28:54;4.85;;;2.10;;
15889;SDS011;8043;49.388;12.128;2023-07-16T20:33:56;2.75;;;1.65;;
15889;SDS011;8043;49.388;12.128;2023-07-16T20:44:00;3.70;;;2.10;;
15889;SDS011;8043;49.388;12.128;2023-07-16T20:49:02;5.58;;;2.40;;
15889;SDS011;8043;49.388;12.128;2023-07-16T20:54:05;2.07;;;1.83;;
15889;SDS011;8043;49.388;12.128;2023-07-16T20:59:09;8.23;;;2.10;;
15889;SDS011;8043;49.388;12.128;2023-07-16T21:04:16;6.28;;;2.20;;
15889;SDS011;8043;49.388;12.128;2023-07-16T21:09:21;3.40;;;2.25;;
15889;SDS011;8043;49.388;12.128;2023-07-16T21:19:25;4.15;;;2.85;;
15889;SDS011;8043;49.388;12.128;2023-07-16T21:24:27;3.67;;;2.42;;
15889;SDS011;8043;49.388;12.128;2023-07-16T21:29:30;4.58;;;2.30;;
15889;SDS011;8043;49.388;12.128;2023-07-16T21:34:32;3.52;;;2.17;;
15889;SDS011;8043;49.388;12.128;2023-07-16T21:44:36;2.42;;;2.20;;
15889;SDS011;8043;49.388;12.128;2023-07-16T21:49:38;3.80;;;2.03;;
15889;SDS011;8043;49.388;12.128;2023-07-16T21:54:41;7.28;;;2.08;;
15889;SDS011;8043;49.388;12.128;2023-07-16T21:59:43;3.92;;;2.35;;
15889;SDS011;8043;49.388;12.128;2023-07-16T22:04:45;5.85;;;2.17;;
15889;SDS011;8043;49.388;12.128;2023-07-16T22:09:48;3.20;;;2.80;;
15889;SDS011;8043;49.388;12.128;2023-07-16T22:14:50;6.08;;;2.70;;
15889;SDS011;8043;49.388;12.128;2023-07-16T22:19:52;3.87;;;2.25;;
15889;SDS011;8043;49.388;12.128;2023-07-16T22:24:54;7.62;;;3.05;;
15889;SDS011;8043;49.388;12.128;2023-07-16T22:34:58;3.05;;;2.42;;
15889;SDS011;8043;49.388;12.128;2023-07-16T22:40:00;3.90;;;2.27;;
15889;SDS011;8043;49.388;12.128;2023-07-16T22:45:04;5.40;;;2.20;;
15889;SDS011;8043;49.388;12.128;2023-07-16T22:50:07;2.75;;;2.40;;
15889;SDS011;8043;49.388;12.128;2023-07-16T22:55:09;3.33;;;2.35;;
15889;SDS011;8043;49.388;12.128;2023-07-16T23:00:11;7.17;;;2.92;;
15889;SDS011;8043;49.388;12.128;2023-07-16T23:05:14;3.40;;;2.40;;
15889;SDS011;8043;49.388;12.128;2023-07-16T23:15:18;8.60;;;2.70;;
15889;SDS011;8043;49.388;12.128;2023-07-16T23:20:20;3.47;;;2.62;;
15889;SDS011;8043;49.388;12.128;2023-07-16T23:25:22;2.80;;;2.05;;
15889;SDS011;8043;49.388;12.128;2023-07-16T23:30:25;3.62;;;2.47;;
15889;SDS011;8043;49.388;12.128;2023-07-16T23:35:29;4.87;;;2.50;;
15889;SDS011;8043;49.388;12.128;2023-07-16T23:40:32;7.75;;;2.50;;
15889;SDS011;8043;49.388;12.128;2023-07-16T23:45:34;6.97;;;2.50;;
15889;SDS011;8043;49.388;12.128;2023-07-16T23:55:38;5.90;;;3.47;;
